Flight Track Log - Related Links

Times and Time Zones

All times are in EDT time to prevent confusion due to time zone crossing. See the UAL906 flight status page for this flight to view local times or setup timezone preferences in your user account.

Time Position Orientation Groundspeed Altitude Reporting Facility
EDT Latitude Longitude Course Direction KTS MPH feet Rate Location/Type
Tue 07:03:13 AM 50.0430 8.5760 270° West 98 113  Level FlightAware ADS-B
Tue 07:03:23 AM 50.0410 8.5690 246° West 135 155 1,333 Level FlightAware ADS-B
Tue 07:03:49 AM 50.0340 8.5390 250° West 180 207 800 2,182 Climbing FlightAware ADS-B
Tue 07:04:07 AM 50.0290 8.5170 251° West 183 211 1,600 2,897 Climbing FlightAware ADS-B
Tue 07:04:18 AM 50.0270 8.5030 257° West 182 209 2,200 2,211 Climbing FlightAware ADS-B
Tue 07:04:45 AM 50.0290 8.4710 276° West 187 215 3,000 1,867 Climbing FlightAware ADS-B
Tue 07:05:03 AM 50.0310 8.4500 278° West 184 212 3,600 1,714 Climbing FlightAware ADS-B
Tue 07:05:27 AM 50.0370 8.4140 285° West 205 236 4,200 1,400 Climbing FlightAware ADS-B
Tue 07:05:33 AM 50.0400 8.4080 308° West 209 241 4,300 1,500 Climbing FlightAware ADS-B
Tue 07:05:51 AM 50.0510 8.3850 307° West 219 252 4,800 1,600 Climbing FlightAware ADS-B
Tue 07:06:03 AM 50.0570 8.3680 299° West 224 258 5,100 1,800 Climbing FlightAware ADS-B
Tue 07:06:21 AM 50.0630 8.3430 291° West 229 264 5,700 1,500 Climbing FlightAware ADS-B
Tue 07:06:39 AM 50.0730 8.3150 299° West 249 287 6,000 1,800 Climbing FlightAware ADS-B
Tue 07:06:51 AM 50.0820 8.2980 310° West 252 290 6,600 2,357 Climbing FlightAware ADS-B
Tue 07:07:07 AM 50.0960 8.2790 319° Northwest 254 292 7,100 2,118 Climbing FlightAware ADS-B
Tue 07:07:25 AM 50.1110 8.2520 311° West 259 298 7,800 2,298 Climbing FlightAware ADS-B
Tue 07:07:54 AM 50.1320 8.2020 303° West 264 304 8,900 2,280 Climbing FlightAware ADS-B
Tue 07:08:15 AM 50.1470 8.1670 304° West 267 307 9,700 1,765 Climbing FlightAware ADS-B
Tue 07:08:45 AM 50.1690 8.1230 308° West 288 331 10,400 1,200 Climbing FlightAware ADS-B
Tue 07:08:55 AM 50.1800 8.1130 330° Northwest 300 345 10,500 783 Climbing FlightAware ADS-B
Tue 07:09:08 AM 50.1990 8.1060 347° North 318 366 10,700 1,000 Climbing FlightAware ADS-B
Tue 07:09:31 AM 50.2340 8.1210 15° North 347 399 11,100 1,000 Climbing FlightAware ADS-B
Tue 07:09:44 AM 50.2510 8.1400 36° Northeast 361 415 11,300 1,000 Climbing FlightAware ADS-B
Tue 07:10:19 AM 50.2890 8.2130 51° Northeast 383 441 11,900 1,352 Climbing FlightAware ADS-B
Tue 07:10:55 AM 50.3290 8.2940 52° Northeast 398 458 12,900 1,800 Climbing FlightAware ADS-B
Tue 07:11:29 AM 50.3690 8.3730 52° Northeast 405 466 14,000 1,875 Climbing FlightAware ADS-B
Tue 07:11:59 AM 50.4030 8.4290 46° Northeast 407 468 14,900 1,853 Climbing FlightAware ADS-B
Tue 07:12:37 AM 50.4660 8.5060 38° Northeast 414 476 16,100 1,703 Climbing FlightAware ADS-B
Tue 07:13:13 AM 50.5180 8.5670 37° Northeast 422 486 17,000 1,500 Climbing FlightAware ADS-B
Tue 07:13:45 AM 50.5720 8.6310 37° Northeast 429 494 17,800 1,500 Climbing FlightAware ADS-B
Tue 07:14:21 AM 50.6290 8.6990 37° Northeast 436 502 18,700 1,606 Climbing FlightAware ADS-B
Tue 07:14:56 AM 50.6840 8.7660 38° Northeast 435 501 19,700 1,652 Climbing FlightAware ADS-B
Tue 07:15:30 AM 50.7380 8.8300 37° Northeast 438 504 20,600 1,565 Climbing FlightAware ADS-B
Tue 07:16:05 AM 50.7970 8.9000 37° Northeast 439 505 21,500 1,543 Climbing FlightAware ADS-B
Tue 07:16:40 AM 50.8520 8.9660 37° Northeast 440 506 22,400 1,417 Climbing FlightAware ADS-B
Tue 07:17:17 AM 50.9110 9.0380 38° Northeast 444 511 23,200 1,304 Climbing FlightAware ADS-B
Tue 07:17:49 AM 50.9650 9.1030 37° Northeast 450 518 23,900 1,217 Climbing FlightAware ADS-B
Tue 07:18:26 AM 51.0270 9.1770 37° Northeast 452 520 24,600 1,091 Climbing FlightAware ADS-B
Tue 07:18:44 AM 51.0570 9.2010 27° Northeast 446 513 24,900 1,371 Climbing FlightAware ADS-B
Tue 07:19:01 AM 51.0900 9.2160 16° North 436 502 25,400 2,333 Climbing FlightAware ADS-B
Tue 07:19:38 AM 51.1650 9.2160 360° North 408 470 27,000 2,348 Climbing FlightAware ADS-B
Tue 07:20:10 AM 51.2220 9.2050 353° North 397 457 28,100 1,701 Climbing FlightAware ADS-B
Tue 07:20:45 AM 51.2860 9.1920 353° North 394 453 28,900 1,167 Climbing FlightAware ADS-B
Tue 07:21:22 AM 51.3550 9.1790 353° North 397 457 29,500 783 Climbing FlightAware ADS-B
Tue 07:21:54 AM 51.4080 9.1690 353° North 400 460 29,800 1,043 Climbing FlightAware ADS-B
Tue 07:22:31 AM 51.4760 9.1570 354° North 395 455 30,700 1,714 Climbing FlightAware ADS-B
Tue 07:23:04 AM 51.5390 9.1450 353° North 385 443 31,800 1,391 Climbing FlightAware ADS-B
Tue 07:23:40 AM 51.6020 9.1330 353° North 386 444 32,300 740 Climbing FlightAware ADS-B
Tue 07:24:17 AM 51.6700 9.1200 353° North 389 448 32,700 500 Climbing FlightAware ADS-B
Tue 07:24:52 AM 51.7320 9.1080 353° North 395 455 32,900 448 Climbing FlightAware ADS-B
Tue 07:25:24 AM 51.7880 9.0980 354° North 399 459 33,200 435 Climbing FlightAware ADS-B
Tue 07:26:01 AM 51.8560 9.0840 353° North 405 466 33,400 405 Climbing FlightAware ADS-B
Tue 07:26:38 AM 51.9290 9.0710 354° North 411 473 33,700 358 Climbing FlightAware ADS-B
Tue 07:27:08 AM 51.9870 9.0590 353° North 415 478 33,800 269 Climbing FlightAware ADS-B
Tue 07:27:45 AM 52.0570 9.0460 353° North 422 486 34,000 162 Climbing FlightAware ADS-B
Tue 07:28:22 AM 52.1290 9.0320 353° North 426 490 34,000  Level FlightAware ADS-B
Tue 07:28:55 AM 52.1940 9.0190 353° North 425 489 34,000  Level FlightAware ADS-B
Tue 07:29:31 AM 52.2620 9.0060 353° North 425 489 34,000  Level FlightAware ADS-B
Tue 07:30:06 AM 52.3330 8.9920 353° North 425 489 34,000  Level FlightAware ADS-B
Tue 07:30:43 AM 52.4010 8.9790 353° North 426 490 34,000  Level FlightAware ADS-B
Tue 07:31:17 AM 52.4690 8.9650 353° North 426 490 34,000  Level FlightAware ADS-B
Tue 07:31:51 AM 52.5360 8.9520 353° North 427 491 34,000  Level FlightAware ADS-B
Tue 07:32:27 AM 52.6070 8.9380 353° North 427 491 34,000  Level FlightAware ADS-B
Tue 07:32:57 AM 52.6660 8.9270 354° North 428 493 34,000  Level FlightAware ADS-B
Tue 07:33:36 AM 52.7430 8.9110 353° North 430 495 34,000  Level FlightAware ADS-B
Tue 07:34:11 AM 52.8100 8.8840 346° North 428 493 34,000  Level FlightAware ADS-B
Tue 07:34:48 AM 52.8770 8.8390 338° Northwest 428 493 34,000  Level FlightAware ADS-B
Tue 07:35:18 AM 52.9310 8.8000 336° Northwest 428 493 34,000  Level FlightAware ADS-B
Tue 07:35:57 AM 53.0030 8.7490 337° Northwest 428 493 34,000  Level FlightAware ADS-B
Tue 07:36:34 AM 53.0690 8.7030 337° Northwest 427 491 34,000  Level FlightAware ADS-B
Tue 07:37:06 AM 53.1240 8.6650 337° Northwest 428 493 34,000  Level FlightAware ADS-B
Tue 07:37:41 AM 53.1910 8.6190 338° Northwest 428 493 34,000  Level FlightAware ADS-B
Tue 07:38:16 AM 53.2510 8.5770 337° Northwest 429 494 34,000  Level FlightAware ADS-B
Tue 07:38:52 AM 53.3180 8.5300 337° Northwest 429 494 34,000  Level FlightAware ADS-B
Tue 07:39:19 AM 53.3670 8.4960 338° Northwest 430 495 34,000  Level FlightAware ADS-B
Tue 07:39:56 AM 53.4380 8.4470 338° Northwest 430 495 34,000  Level FlightAware ADS-B
Tue 07:40:29 AM 53.4980 8.4060 338° Northwest 431 496 34,000  Level FlightAware ADS-B
Tue 07:41:05 AM 53.5650 8.3590 337° Northwest 431 496 34,000  Level FlightAware ADS-B
Tue 07:41:47 AM 53.6420 8.3040 337° Northwest 431 496 34,000  Level FlightAware ADS-B (KAPA)
Tue 07:42:21 AM 53.7060 8.2540 335° Northwest 431 496 34,000  Level FlightAware ADS-B (KAPA)
Tue 07:43:00 AM 53.7740 8.2010 335° Northwest 431 496 34,000  Level FlightAware ADS-B (KAPA)
Tue 07:43:32 AM 53.8340 8.1560 336° Northwest 431 496 34,000  Level FlightAware ADS-B (KAPA)
Tue 07:44:08 AM 53.8960 8.1080 335° Northwest 431 496 34,000  Level FlightAware ADS-B (KAPA)
Tue 07:44:44 AM 53.9630 8.0570 336° Northwest 432 497 34,000  Level FlightAware ADS-B (KAPA)
Tue 07:45:16 AM 54.0230 8.0110 336° Northwest 434 499 34,000  Level FlightAware ADS-B (KAPA)
Tue 07:45:52 AM 54.0870 7.9610 335° Northwest 436 502 34,000  Level FlightAware ADS-B (KAPA)
Tue 07:46:28 AM 54.1550 7.9080 335° Northwest 437 503 34,000  Level FlightAware ADS-B
Tue 07:47:00 AM 54.2120 7.8640 336° Northwest 437 503 34,000  Level FlightAware ADS-B
Tue 07:47:34 AM 54.2740 7.8150 335° Northwest 438 504 34,000  Level FlightAware ADS-B
Tue 07:48:14 AM 54.3480 7.7570 335° Northwest 438 504 34,000  Level FlightAware ADS-B
Tue 07:48:44 AM 54.4030 7.7140 336° Northwest 438 504 34,000  Level FlightAware ADS-B
Tue 07:49:23 AM 54.4740 7.6570 335° Northwest 438 504 34,000  Level FlightAware ADS-B
Tue 07:50:00 AM 54.5420 7.6040 336° Northwest 439 505 34,000  Level FlightAware ADS-B
Tue 07:50:32 AM 54.6000 7.5570 335° Northwest 439 505 34,000  Level FlightAware ADS-B
Tue 07:51:08 AM 54.6680 7.5030 335° Northwest 439 505 34,000  Level FlightAware ADS-B
Tue 07:51:42 AM 54.7210 7.4610 335° Northwest 440 506 34,000  Level FlightAware ADS-B
Tue 07:52:17 AM 54.7940 7.4020 335° Northwest 440 506 34,000  Level FlightAware ADS-B
Tue 07:52:52 AM 54.8580 7.3500 335° Northwest 440 506 34,000  Level FlightAware ADS-B
Tue 07:53:28 AM 54.9250 7.2900 333° Northwest 439 505 34,000  Level FlightAware ADS-B
Tue 07:54:04 AM 54.9900 7.2270 331° Northwest 441 507 34,000  Level FlightAware ADS-B
Tue 07:54:36 AM 55.0460 7.1710 330° Northwest 442 509 34,000  Level FlightAware ADS-B
Tue 07:55:12 AM 55.1040 7.1120 330° Northwest 443 510 34,000  Level FlightAware ADS-B
Tue 07:55:48 AM 55.1720 7.0440 330° Northwest 444 511 34,000  Level FlightAware ADS-B
Tue 07:56:23 AM 55.2340 6.9820 330° Northwest 445 512 34,000  Level FlightAware ADS-B
Tue 07:57:00 AM 55.3010 6.9140 330° Northwest 447 514 34,000  Level FlightAware ADS-B
Tue 07:57:32 AM 55.3560 6.8600 331° Northwest 446 513 34,000  Level FlightAware ADS-B
Tue 07:58:02 AM 55.4110 6.8040 330° Northwest 446 513 34,000  Level FlightAware ADS-B
Tue 07:58:48 AM 55.4950 6.7190 330° Northwest 447 514 34,000  Level FlightAware ADS-B
Tue 07:59:21 AM 55.5500 6.6630 330° Northwest 448 516 34,000  Level FlightAware ADS-B
Tue 07:59:56 AM 55.6130 6.5990 330° Northwest 448 516 34,000  Level FlightAware ADS-B
Tue 08:00:36 AM 55.6860 6.5240 330° Northwest 449 517 34,000  Level FlightAware ADS-B
Tue 08:01:06 AM 55.7400 6.4690 330° Northwest 450 518 34,000  Level FlightAware ADS-B
Tue 08:01:42 AM 55.8020 6.4050 330° Northwest 450 518 34,000  Level FlightAware ADS-B
Tue 08:02:21 AM 55.8720 6.3330 330° Northwest 450 518 34,000  Level FlightAware ADS-B
Tue 08:02:56 AM 55.9310 6.2710 330° Northwest 450 518 34,000  Level FlightAware ADS-B
Tue 08:03:26 AM 55.9920 6.2080 330° Northwest 450 518 34,000  Level FlightAware ADS-B
Tue 08:04:06 AM 56.0610 6.1350 329° Northwest 450 518 34,000  Level FlightAware ADS-B
Tue 08:04:36 AM 56.1170 6.0760 330° Northwest 450 518 34,000  Level FlightAware ADS-B
Tue 08:05:11 AM 56.1800 6.0090 329° Northwest 450 518 34,000  Level FlightAware ADS-B
Tue 08:05:46 AM 56.2420 5.9440 330° Northwest 450 518 34,000  Level FlightAware ADS-B
Tue 08:06:26 AM 56.3120 5.8700 330° Northwest 450 518 34,000  Level FlightAware ADS-B
Tue 08:07:01 AM 56.3780 5.8000 330° Northwest 450 518 34,000  Level FlightAware ADS-B
Tue 08:07:31 AM 56.4280 5.7460 329° Northwest 450 518 34,000  Level FlightAware ADS-B
Tue 08:08:16 AM 56.5090 5.6580 329° Northwest 450 518 34,000  Level FlightAware ADS-B
Tue 08:08:50 AM 56.5700 5.5920 329° Northwest 449 517 34,000 86 Level FlightAware ADS-B
Tue 08:09:26 AM 56.6360 5.5210 329° Northwest 448 516 34,100 257 Climbing FlightAware ADS-B
Tue 08:10:00 AM 56.6980 5.4540 329° Northwest 447 514 34,300 333 Climbing FlightAware ADS-B
Tue 08:10:38 AM 56.7630 5.3820 329° Northwest 452 520 34,500 321 Climbing FlightAware ADS-B
Tue 08:10:56 AM 56.7940 5.3480 329° Northwest 453 521 34,600 320 Climbing FlightAware ADS-B
Tue 08:11:53 AM 56.9000 5.2320 329° Northwest 459 528 34,900 337 Climbing FlightAware ADS-B
Tue 08:12:25 AM 56.9590 5.1660 329° Northwest 463 533 35,100 174 Climbing FlightAware ADS-B
Tue 08:13:02 AM 57.0270 5.0900 329° Northwest 470 541 35,100 243 Level FlightAware ADS-B
Tue 08:13:39 AM 57.0960 5.0130 329° Northwest 472 543 35,400 435 Climbing FlightAware ADS-B
Tue 08:14:11 AM 57.1550 4.9470 329° Northwest 470 541 35,600 514 Climbing FlightAware ADS-B
Tue 08:14:49 AM 57.2240 4.8690 329° Northwest 469 540 36,000 329 Climbing FlightAware ADS-B
Tue 08:15:24 AM 57.2900 4.7940 328° Northwest 469 540 36,000  Level FlightAware ADS-B
Tue 08:15:57 AM 57.3500 4.7270 329° Northwest 468 539 36,000  Level FlightAware ADS-B
Tue 08:16:30 AM 57.4120 4.6560 328° Northwest 467 537 36,000  Level FlightAware ADS-B
Tue 08:17:06 AM 57.4760 4.5820 328° Northwest 466 536 36,000  Level FlightAware ADS-B
Tue 08:17:44 AM 57.5460 4.5020 328° Northwest 463 533 36,000  Level FlightAware ADS-B
Tue 08:18:20 AM 57.6120 4.4250 328° Northwest 462 532 36,000  Level FlightAware ADS-B
Tue 08:18:52 AM 57.6700 4.3580 328° Northwest 462 532 36,000  Level FlightAware ADS-B
Tue 08:19:28 AM 57.7340 4.2840 328° Northwest 463 533 36,000  Level FlightAware ADS-B
Tue 08:20:04 AM 57.7990 4.2080 328° Northwest 462 532 36,000 -87 Level FlightAware ADS-B
Tue 08:20:37 AM 57.8601 4.1371 328° Northwest 490 564 35,900  Descending FlightAware UK
Tue 08:20:37 AM 57.8590 4.1370 328° Northwest 463 533 36,000 167 Climbing FlightAware ADS-B
Tue 08:21:13 AM 57.9250 4.0600 328° Northwest 464 534 36,000  Level FlightAware ADS-B
Tue 08:21:47 AM 57.9840 3.9890 327° Northwest 466 536 36,000  Level FlightAware ADS-B
Tue 08:22:25 AM 58.0550 3.9050 328° Northwest 466 536 36,000  Level FlightAware ADS-B
Tue 08:22:58 AM 58.1160 3.8330 328° Northwest 466 536 36,000  Level FlightAware ADS-B
Tue 08:23:33 AM 58.1790 3.7570 328° Northwest 466 536 36,000  Level FlightAware ADS-B
Tue 08:24:10 AM 58.2450 3.6770 327° Northwest 466 536 36,000  Level FlightAware ADS-B
Tue 08:24:42 AM 58.3030 3.6070 328° Northwest 467 537 36,000  Level FlightAware ADS-B
Tue 08:25:16 AM 58.3670 3.5300 328° Northwest 468 539 36,000  Level FlightAware ADS-B
Tue 08:25:53 AM 58.4330 3.4490 327° Northwest 469 540 36,000  Level FlightAware ADS-B
Tue 08:26:29 AM 58.4990 3.3680 327° Northwest 469 540 36,000  Level FlightAware ADS-B
Tue 08:27:01 AM 58.5574 3.2962 327° Northwest 494 568 36,000  Level FlightAware UK
Tue 08:27:03 AM 58.5610 3.2920 327° Northwest 471 542 36,000  Level FlightAware ADS-B
Tue 08:27:38 AM 58.6250 3.2120 327° Northwest 471 542 36,000  Level FlightAware ADS-B
Tue 08:28:15 AM 58.6920 3.1290 327° Northwest 472 543 36,000  Level FlightAware ADS-B
Tue 08:28:47 AM 58.7520 3.0540 327° Northwest 473 544 36,000  Level FlightAware ADS-B
Tue 08:28:49 AM 58.7550 3.0507 327° Northwest 496 571 36,000  Level FlightAware UK
Tue 08:29:23 AM 58.8180 2.9720 327° Northwest 474 545 36,000  Level FlightAware ADS-B
Tue 08:29:59 AM 58.8820 2.8910 327° Northwest 475 547 36,000  Level FlightAware ADS-B
Tue 08:30:31 AM 58.9410 2.8160 327° Northwest 476 548 36,000  Level FlightAware ADS-B
Tue 08:31:07 AM 59.0070 2.7320 327° Northwest 476 548 36,000  Level FlightAware ADS-B
Tue 08:31:41 AM 59.0680 2.6540 327° Northwest 477 549 36,000  Level FlightAware ADS-B
Tue 08:32:18 AM 59.1370 2.5660 327° Northwest 478 550 36,000  Level FlightAware ADS-B
Tue 08:32:47 AM 59.1840 2.5060 327° Northwest 478 550 36,000  Level FlightAware ADS-B
Tue 08:33:42 AM 59.2900 2.3690 327° Northwest 479 551 36,000  Level FlightAware ADS-B
Tue 08:33:43 AM 59.2953 2.3636 327° Northwest 498 573 36,000  Level FlightAware UK
Tue 08:34:17 AM 59.3530 2.2870 327° Northwest 480 552 36,000  Level FlightAware ADS-B
Tue 08:34:19 AM 59.3612 2.2780 327° Northwest 498 573 36,000  Level FlightAware UK
Tue 08:34:55 AM 59.4276 2.1914 327° Northwest 496 571 36,000  Level FlightAware UK
Tue 08:34:57 AM 59.4270 2.1890 327° Northwest 481 554 36,000  Level FlightAware ADS-B
Tue 08:35:39 AM 59.5080 2.0840 327° Northwest 481 554 36,000  Level FlightAware ADS-B
Tue 08:36:12 AM 59.5620 2.0120 326° Northwest 482 555 36,000  Level FlightAware ADS-B
Tue 08:36:51 AM 59.6400 1.9070 326° Northwest 482 555 36,000  Level FlightAware ADS-B
Tue 08:37:22 AM 59.6970 1.8320 326° Northwest 481 554 36,000  Level FlightAware ADS-B
Tue 08:37:54 AM 59.7591 1.7501 326° Northwest 502 578 36,000  Level FlightAware UK
Tue 08:38:08 AM 59.7780 1.7230 326° Northwest 473 544 36,000  Level FlightAware ADS-B
Tue 08:38:42 AM 59.8450 1.6330 326° Northwest 473 544 36,000  Level FlightAware ADS-B
Tue 08:39:16 AM 59.9060 1.5500 326° Northwest 473 544 36,000  Level FlightAware ADS-B
Tue 08:39:52 AM 59.9710 1.4620 326° Northwest 473 544 36,000  Level FlightAware ADS-B
Tue 08:40:26 AM 60.0330 1.3770 326° Northwest 473 544 36,000  Level FlightAware ADS-B
Tue 08:41:06 AM 60.1094 1.2728 326° Northwest 502 578 36,000  Level FlightAware UK
Tue 08:41:09 AM 60.1050 1.2770 326° Northwest 480 552 36,000  Level FlightAware ADS-B
Tue 08:41:42 AM 60.1746 1.1825 326° Northwest 500 575 36,000  Level FlightAware UK
Tue 08:41:47 AM 60.1810 1.1720 326° Northwest 472 543 36,000  Level FlightAware ADS-B
Tue 08:42:17 AM 60.2360 1.0970 326° Northwest 471 542 36,000  Level FlightAware ADS-B
Tue 08:42:52 AM 60.2990 1.0090 325° Northwest 470 541 36,000  Level FlightAware ADS-B
Tue 08:43:28 AM 60.3610 0.9210 325° Northwest 470 541 36,000  Level FlightAware ADS-B
Tue 08:44:03 AM 60.4220 0.8350 325° Northwest 470 541 36,000  Level FlightAware ADS-B
Tue 08:44:37 AM 60.4880 0.7410 325° Northwest 470 541 36,000  Level FlightAware ADS-B
Tue 08:45:13 AM 60.5510 0.6520 325° Northwest 470 541 36,000  Level FlightAware ADS-B
Tue 08:45:48 AM 60.6130 0.5640 325° Northwest 471 542 36,000  Level FlightAware ADS-B
Tue 08:46:22 AM 60.6790 0.4680 325° Northwest 478 550 36,000  Level FlightAware ADS-B
Tue 08:47:14 AM 60.7600 0.3500 325° Northwest 472 543 36,000  Level FlightAware ADS-B
Tue 08:47:50 AM 60.8140 0.2690 324° Northwest 472 543 36,000  Level FlightAware ADS-B
Tue 08:48:22 AM 60.8920 0.1590 326° Northwest 473 544 36,000  Level FlightAware ADS-B
Tue 08:49:02 AM 60.9550 0.0640 324° Northwest 473 544 36,000  Level FlightAware ADS-B
Tue 08:49:38 AM 61.0080 -0.0190 323° Northwest 473 544 36,000  Level FlightAware ADS-B
Tue 08:50:17 AM 61.0890 -0.1800 316° Northwest 481 554 36,000  Level FlightAware ADS-B
Tue 08:50:52 AM 61.1440 -0.2900 316° Northwest 481 554 36,000  Level FlightAware ADS-B
Tue 08:51:24 AM 61.1950 -0.3950 315° West 481 554 36,000  Level FlightAware ADS-B
Tue 08:52:00 AM 61.2520 -0.5130 315° West 481 554 36,000  Level FlightAware ADS-B
Tue 08:52:46 AM 61.3170 -0.6460 316° Northwest 481 554 36,000  Level FlightAware ADS-B
Tue 08:53:17 AM 61.3740 -0.7650 315° West 483 556 36,000  Level FlightAware ADS-B
Tue 08:53:52 AM 61.4280 -0.8770 315° West 485 558 36,000  Level FlightAware ADS-B
Tue 08:54:28 AM 61.4860 -0.9990 315° West 485 558 36,000  Level FlightAware ADS-B
Tue 08:55:05 AM 61.5450 -1.1230 315° West 486 559 36,000  Level FlightAware ADS-B
Tue 08:55:36 AM 61.5930 -1.2250 315° West 487 560 36,000  Level FlightAware ADS-B
Tue 08:56:11 AM 61.6490 -1.3430 315° West 486 559 36,000  Level FlightAware ADS-B
Tue 08:56:49 AM 61.7090 -1.4720 314° West 485 558 36,000  Level FlightAware ADS-B
Tue 08:57:21 AM 61.7590 -1.5800 314° West 485 558 36,000  Level FlightAware ADS-B
Tue 08:57:55 AM 61.8040 -1.6790 314° West 485 558 36,000  Level FlightAware ADS-B
Tue 08:58:34 AM 61.8720 -1.8260 314° West 485 558 36,000  Level FlightAware ADS-B
Tue 08:59:06 AM 61.9220 -1.9360 314° West 487 560 36,000  Level FlightAware ADS-B
Tue 08:59:43 AM 61.9780 -2.0580 314° West 487 560 36,000  Level FlightAware ADS-B
Tue 09:00:17 AM 62.0330 -2.1800 314° West 486 559 36,000  Level FlightAware ADS-B
Tue 09:00:51 AM 62.0860 -2.2980 314° West 485 558 36,000  Level FlightAware ADS-B
Tue 09:01:28 AM 62.1420 -2.4240 314° West 485 558 36,000  Level FlightAware ADS-B
Tue 09:02:05 AM 62.2000 -2.5530 314° West 485 558 36,000  Level FlightAware ADS-B
Tue 09:02:37 AM 62.2490 -2.6660 313° West 484 557 36,000  Level FlightAware ADS-B
Tue 09:03:14 AM 62.3050 -2.7930 314° West 484 557 36,000  Level FlightAware ADS-B
Tue 09:03:49 AM 62.3600 -2.9180 314° West 483 556 36,000  Level FlightAware ADS-B
Tue 09:04:22 AM 62.4080 -3.0300 313° West 483 556 36,000  Level FlightAware ADS-B
Tue 09:04:56 AM 62.4580 -3.1440 314° West 481 554 36,000  Level FlightAware ADS-B
Tue 09:05:34 AM 62.5170 -3.2830 313° West 481 554 36,000  Level FlightAware ADS-B
Tue 09:06:09 AM 62.5710 -3.4080 313° West 482 555 36,000  Level FlightAware ADS-B
Tue 09:06:42 AM 62.6200 -3.5230 313° West 481 554 36,000  Level FlightAware ADS-B
Tue 09:07:14 AM 62.6690 -3.6390 313° West 481 554 36,000  Level FlightAware ADS-B
Tue 09:07:54 AM 62.7290 -3.7810 313° West 481 554 36,000  Level FlightAware ADS-B
Tue 09:08:30 AM 62.7820 -3.9080 312° West 481 554 36,000  Level FlightAware ADS-B
Tue 09:09:02 AM 62.8290 -4.0220 312° West 481 554 36,000  Level FlightAware ADS-B
Tue 09:09:37 AM 62.8820 -4.1510 312° West 481 554 36,000  Level FlightAware ADS-B
Tue 09:10:14 AM 62.9360 -4.2830 312° West 481 554 36,000  Level FlightAware ADS-B
Tue 09:10:46 AM 62.9840 -4.3990 312° West 482 555 36,000  Level FlightAware ADS-B
Tue 09:11:00 AM 63.0040 -4.4500 311° West 482 555 36,000  Level FlightAware ADS-B
Tue 09:11:52 AM 63.0820 -4.6420 312° West 483 556 36,000  Level FlightAware ADS-B
Tue 09:12:28 AM 63.1350 -4.7730 312° West 482 555 36,000  Level FlightAware ADS-B
Tue 09:13:04 AM 63.1880 -4.9070 311° West 481 554 36,000  Level FlightAware ADS-B
Tue 09:13:40 AM 63.2400 -5.0370 312° West 481 554 36,000  Level FlightAware ADS-B
Tue 09:14:15 AM 63.2930 -5.1710 311° West 481 554 36,000  Level FlightAware ADS-B
Tue 09:14:47 AM 63.3390 -5.2880 311° West 482 555 36,000  Level FlightAware ADS-B
Tue 09:15:24 AM 63.3920 -5.4240 311° West 481 554 36,000  Level FlightAware ADS-B
Tue 09:16:01 AM 63.4470 -5.5670 311° West 482 555 36,000  Level FlightAware ADS-B
Tue 09:16:33 AM 63.4930 -5.6870 311° West 482 555 36,000  Level FlightAware ADS-B
Tue 09:17:09 AM 63.5450 -5.8220 311° West 482 555 36,000  Level FlightAware ADS-B
Tue 09:17:45 AM 63.5970 -5.9590 311° West 483 556 36,000  Level FlightAware ADS-B
Tue 09:18:20 AM 63.6470 -6.0910 311° West 483 556 36,000  Level FlightAware ADS-B
Tue 09:18:51 AM 63.6930 -6.2110 311° West 485 558 36,000  Level FlightAware ADS-B
Tue 09:19:28 AM 63.7450 -6.3510 310° West 486 559 36,000  Level FlightAware ADS-B
Tue 09:20:05 AM 63.7990 -6.4970 310° West 486 559 36,000  Level FlightAware ADS-B
Tue 09:20:37 AM 63.8460 -6.6240 310° West 488 562 36,000  Level FlightAware ADS-B
Tue 09:21:12 AM 63.8960 -6.7590 310° West 489 563 36,000  Level FlightAware ADS-B
Tue 09:21:48 AM 63.9470 -6.9000 310° West 489 563 36,000  Level FlightAware ADS-B
Tue 09:22:19 AM 63.9930 -7.0250 310° West 489 563 36,000  Level FlightAware ADS-B
Tue 09:22:59 AM 64.0490 -7.1830 309° West 489 563 36,000  Level FlightAware ADS-B
Tue 09:23:41 AM 64.1020 -7.3300 310° West 489 563 36,000  Level FlightAware ADS-B
Tue 09:24:18 AM 64.1460 -7.4570 309° West 489 563 36,000  Level FlightAware ADS-B
Tue 09:24:54 AM 64.1900 -7.5810 309° West 489 563 36,000  Level FlightAware ADS-B
Tue 09:25:31 AM 64.2350 -7.7080 309° West 489 563 36,000  Level FlightAware ADS-B
Tue 09:26:07 AM 64.2780 -7.8320 309° West 489 563 36,000  Level FlightAware ADS-B
Tue 09:26:44 AM 64.3230 -7.9590 309° West 489 563 36,000  Level FlightAware ADS-B
Tue 09:27:22 AM 64.3690 -8.0900 309° West 489 563 36,000  Level FlightAware ADS-B
Tue 09:27:58 AM 64.4120 -8.2150 309° West 489 563 36,000  Level FlightAware ADS-B
Tue 09:28:34 AM 64.4560 -8.3400 309° West 489 563 36,000  Level FlightAware ADS-B
Tue 09:29:10 AM 64.5000 -8.4650 309° West 489 563 36,000  Level FlightAware ADS-B
Tue 09:29:46 AM 64.5430 -8.5900 309° West 489 563 36,000  Level FlightAware ADS-B
Tue 09:30:22 AM 64.5870 -8.7150 309° West 489 563 36,000  Level FlightAware ADS-B
Tue 09:30:58 AM 64.6300 -8.8400 309° West 489 563 36,000  Level FlightAware ADS-B
Tue 09:31:34 AM 64.6740 -8.9660 309° West 489 563 36,000  Level FlightAware ADS-B
Tue 09:32:10 AM 64.7170 -9.0920 309° West 489 563 36,000  Level FlightAware ADS-B
Tue 09:32:46 AM 64.7610 -9.2180 309° West 489 563 36,000  Level FlightAware ADS-B
Tue 09:35:00 AM 64.8137 -9.8205 282° West  Level Estimated
Tue 09:36:00 AM 64.8366 -10.0920 281° West  Level Estimated
Tue 09:37:00 AM 64.8590 -10.3640 281° West  Level Estimated
Tue 09:38:00 AM 64.8809 -10.6364 281° West  Level Estimated
Tue 09:39:00 AM 64.9023 -10.9093 281° West  Level Estimated
Tue 09:40:00 AM 64.9232 -11.1826 280° West  Level Estimated
Tue 09:41:00 AM 64.9436 -11.4563 280° West  Level Estimated
Tue 09:42:00 AM 64.9635 -11.7305 280° West  Level Estimated
Tue 09:43:00 AM 64.9829 -12.0050 280° West  Level Estimated
Tue 09:44:00 AM 65.0018 -12.2799 279° West  Level Estimated
Tue 09:45:00 AM 65.0202 -12.5553 279° West  Level Estimated
Tue 09:46:00 AM 65.0380 -12.8309 279° West  Level Estimated
Tue 09:46:47 AM 65.4660 -13.7900 279° West 480 552 36,000  Level FlightAware ADS-B
Tue 09:47:23 AM 65.4860 -13.9740 285° West 482 555 36,000  Level FlightAware ADS-B
Tue 09:47:58 AM 65.5060 -14.1620 284° West 482 555 36,000  Level FlightAware ADS-B
Tue 09:48:30 AM 65.5230 -14.3250 284° West 485 558 36,000  Level FlightAware ADS-B
Tue 09:49:10 AM 65.5450 -14.5380 284° West 486 559 36,000  Level FlightAware ADS-B
Tue 09:49:46 AM 65.5640 -14.7260 284° West 487 560 36,000  Level FlightAware ADS-B
Tue 09:50:26 AM 65.5850 -14.9350 284° West 487 560 36,000  Level FlightAware ADS-B
Tue 09:50:59 AM 65.6030 -15.1110 284° West 489 563 36,000  Level FlightAware ADS-B
Tue 09:51:37 AM 65.6230 -15.3110 284° West 488 562 36,000  Level FlightAware ADS-B
Tue 09:52:13 AM 65.6410 -15.5040 283° West 487 560 36,000  Level FlightAware ADS-B
Tue 09:52:45 AM 65.6570 -15.6730 283° West 486 559 36,000  Level FlightAware ADS-B
Tue 09:53:20 AM 65.6740 -15.8500 283° West 485 558 36,000  Level FlightAware ADS-B
Tue 09:53:57 AM 65.6920 -16.0510 282° West 484 557 36,000  Level FlightAware ADS-B
Tue 09:54:33 AM 65.7080 -16.2260 283° West 484 557 36,000  Level FlightAware ADS-B
Tue 09:55:04 AM 65.7250 -16.4050 283° West 484 557 36,000  Level FlightAware ADS-B
Tue 09:55:41 AM 65.7420 -16.6020 282° West 483 556 36,000  Level FlightAware ADS-B
Tue 09:56:16 AM 65.7580 -16.7880 282° West 484 557 36,000  Level FlightAware ADS-B
Tue 09:56:53 AM 65.7750 -16.9820 282° West 485 558 36,000  Level FlightAware ADS-B
Tue 09:57:25 AM 65.7900 -17.1550 282° West 485 558 36,000  Level FlightAware ADS-B
Tue 09:57:59 AM 65.8040 -17.3350 281° West 485 558 36,000  Level FlightAware ADS-B
Tue 09:58:37 AM 65.8210 -17.5380 282° West 485 558 36,000  Level FlightAware ADS-B
Tue 09:59:12 AM 65.8360 -17.7280 281° West 484 557 36,000  Level FlightAware ADS-B
Tue 09:59:49 AM 65.8520 -17.9200 282° West 485 558 36,000  Level FlightAware ADS-B
Tue 10:00:22 AM 65.8660 -18.1050 281° West 487 560 36,000  Level FlightAware ADS-B
Tue 10:00:58 AM 65.8810 -18.2980 281° West 487 560 36,000  Level FlightAware ADS-B
Tue 10:01:30 AM 65.8940 -18.4710 281° West 487 560 36,000  Level FlightAware ADS-B
Tue 10:02:21 AM 65.9110 -18.7120 280° West 487 560 36,000  Level FlightAware ADS-B
Tue 10:02:58 AM 65.9240 -18.8830 281° West 487 560 36,000  Level FlightAware ADS-B
Tue 10:03:34 AM 65.9360 -19.0490 280° West 487 560 36,000  Level FlightAware ADS-B
Tue 10:04:10 AM 65.9470 -19.2160 279° West 487 560 36,000  Level FlightAware ADS-B
Tue 10:04:47 AM 65.9600 -19.3870 281° West 487 560 36,000  Level FlightAware ADS-B
Tue 10:05:23 AM 65.9820 -19.7270 279° West 485 558 36,000  Level FlightAware ADS-B
Tue 10:05:51 AM 65.9920 -19.8780 279° West 486 559 36,000  Level FlightAware ADS-B
Tue 10:06:35 AM 66.0040 -20.1170 277° West 485 558 36,000  Level FlightAware ADS-B
Tue 10:07:07 AM 66.0090 -20.2930 274° West 485 558 36,000  Level FlightAware ADS-B
Tue 10:07:43 AM 66.0150 -20.4910 274° West 485 558 36,000  Level FlightAware ADS-B
Tue 10:08:19 AM 66.0210 -20.6860 274° West 485 558 36,000  Level FlightAware ADS-B
Tue 10:08:56 AM 66.0270 -20.8950 274° West 486 559 36,000  Level FlightAware ADS-B
Tue 10:09:28 AM 66.0310 -21.0700 273° West 485 558 36,000  Level FlightAware ADS-B
Tue 10:10:03 AM 66.0360 -21.2580 274° West 485 558 36,000  Level FlightAware ADS-B
Tue 10:10:38 AM 66.0400 -21.4510 273° West 485 558 36,000  Level FlightAware ADS-B
Tue 10:11:28 AM 66.0460 -21.7190 273° West 486 559 36,000  Level FlightAware ADS-B
Tue 10:12:03 AM 66.0500 -21.9200 273° West 486 559 36,000  Level FlightAware ADS-B
Tue 10:12:37 AM 66.0540 -22.1080 273° West 486 559 36,000  Level FlightAware ADS-B
Tue 10:13:14 AM 66.0580 -22.3120 273° West 486 559 36,000  Level FlightAware ADS-B
Tue 10:13:50 AM 66.0610 -22.5110 272° West 486 559 36,000  Level FlightAware ADS-B
Tue 10:14:28 AM 66.0640 -22.7190 272° West 485 558 36,000  Level FlightAware ADS-B
Tue 10:15:11 AM 66.0670 -22.9240 272° West 485 558 36,000  Level FlightAware ADS-B
Tue 10:16:03 AM 66.0700 -23.2120 272° West 484 557 36,000  Level FlightAware ADS-B
Tue 10:16:39 AM 66.0710 -23.3810 271° West 484 557 36,000  Level FlightAware ADS-B
Tue 10:17:15 AM 66.0720 -23.5500 271° West 484 557 36,000  Level FlightAware ADS-B
Tue 10:17:51 AM 66.0740 -23.7190 272° West 484 557 36,000  Level FlightAware ADS-B
Tue 10:18:27 AM 66.0750 -23.8880 271° West 484 557 36,000  Level FlightAware ADS-B
Tue 10:19:04 AM 66.0760 -24.0620 271° West 484 557 36,000  Level FlightAware ADS-B
Tue 10:19:40 AM 66.0770 -24.2310 271° West 484 557 36,000  Level FlightAware ADS-B
Tue 10:20:16 AM 66.0780 -24.3990 271° West 484 557 36,000  Level FlightAware ADS-B
Tue 10:20:52 AM 66.0800 -24.5680 272° West 484 557 36,000  Level FlightAware ADS-B
Tue 10:21:29 AM 66.0810 -24.7420 271° West 484 557 36,000  Level FlightAware ADS-B
Tue 10:22:05 AM 66.0820 -24.9110 271° West 484 557 36,000  Level FlightAware ADS-B
Tue 10:22:40 AM 66.0830 -25.0750 271° West 484 557 36,000  Level FlightAware ADS-B
Tue 10:23:14 AM 66.0840 -25.2350 271° West 484 557 36,000  Level FlightAware ADS-B
Tue 10:23:50 AM 66.0850 -25.4040 271° West 484 557 36,000  Level FlightAware ADS-B
Tue 10:24:26 AM 66.0860 -25.5730 271° West 484 557 36,000  Level FlightAware ADS-B
Tue 10:25:02 AM 66.0880 -25.7420 272° West 484 557 36,000  Level FlightAware ADS-B
Tue 10:27:00 AM 66.0707 -26.3115 266° West  Level Estimated
Tue 10:28:00 AM 66.0611 -26.6008 265° West  Level Estimated
Tue 10:29:00 AM 66.0510 -26.8899 265° West  Level Estimated
Tue 10:30:00 AM 66.0403 -27.1787 265° West  Level Estimated
Tue 10:31:00 AM 66.0291 -27.4673 265° West  Level Estimated
Tue 10:32:00 AM 66.0174 -27.7556 264° West  Level Estimated
Tue 10:33:00 AM 66.0051 -28.0436 264° West  Level Estimated
Tue 10:34:00 AM 65.9922 -28.3314 264° West  Level Estimated
Tue 10:35:00 AM 65.9789 -28.6189 264° West  Level Estimated
Tue 10:36:00 AM 65.9650 -28.9060 263° West  Level Estimated
Tue 10:37:00 AM 65.9506 -29.1929 263° West  Level Estimated
Tue 10:38:00 AM 65.9356 -29.4794 263° West  Level Estimated
Tue 10:39:00 AM 65.9201 -29.7656 263° West  Level Estimated
Tue 10:40:00 AM 65.9041 -30.0514 262° West  Level Estimated
Tue 10:41:00 AM 65.8875 -30.3368 262° West  Level Estimated
Tue 10:42:00 AM 65.8704 -30.6219 262° West  Level Estimated
Tue 10:43:00 AM 65.8528 -30.9066 262° West  Level Estimated
Tue 10:44:00 AM 65.8346 -31.1909 261° West  Level Estimated
Tue 10:45:00 AM 65.8160 -31.4748 261° West  Level Estimated
Tue 10:46:00 AM 65.7968 -31.7583 261° West  Level Estimated
Tue 10:47:00 AM 65.7770 -32.0413 260° West  Level Estimated
Tue 10:48:00 AM 65.7568 -32.3239 260° West  Level Estimated
Tue 10:49:00 AM 65.7360 -32.6061 260° West  Level Estimated
Tue 10:50:00 AM 65.7147 -32.8878 260° West  Level Estimated
Tue 10:51:00 AM 65.6929 -33.1690 259° West  Level Estimated
Tue 10:52:00 AM 65.6706 -33.4498 259° West  Level Estimated
Tue 10:53:00 AM 65.6478 -33.7300 259° West  Level Estimated
Tue 10:54:00 AM 65.6244 -34.0098 259° West  Level Estimated
Tue 10:55:00 AM 65.6006 -34.2891 258° West  Level Estimated
Tue 10:56:00 AM 65.5762 -34.5678 258° West  Level Estimated
Tue 10:57:00 AM 65.5513 -34.8460 258° West  Level Estimated
Tue 10:58:00 AM 65.5259 -35.1237 258° West  Level Estimated
Tue 10:59:00 AM 65.5000 -35.4008 257° West  Level Estimated
Tue 11:00:00 AM 65.4736 -35.6774 257° West  Level Estimated
Tue 11:01:00 AM 65.4467 -35.9534 257° West  Level Estimated
Tue 11:02:00 AM 65.4193 -36.2288 257° West  Level Estimated
Tue 11:03:00 AM 65.3914 -36.5037 256° West  Level Estimated
Tue 11:04:00 AM 65.3630 -36.7780 256° West  Level Estimated
Tue 11:05:00 AM 65.3341 -37.0516 256° West  Level Estimated
Tue 11:06:00 AM 65.3047 -37.3247 256° West  Level Estimated
Tue 11:07:00 AM 65.2748 -37.5971 255° West  Level Estimated
Tue 11:08:00 AM 65.2444 -37.8690 255° West  Level Estimated
Tue 11:09:00 AM 65.2135 -38.1402 255° West  Level Estimated
Tue 11:10:00 AM 65.1822 -38.4107 255° West  Level Estimated
Tue 11:11:00 AM 65.1503 -38.6811 254° West  Level Estimated
Tue 11:12:00 AM 65.1179 -38.9509 254° West  Level Estimated
Tue 11:13:00 AM 65.0850 -39.2200 254° West  Level Estimated
Tue 11:14:00 AM 65.0517 -39.4884 254° West  Level Estimated
Tue 11:15:00 AM 65.0179 -39.7562 253° West  Level Estimated
Tue 11:16:00 AM 64.9835 -40.0233 253° West  Level Estimated
Tue 11:17:00 AM 64.9488 -40.2897 253° West  Level Estimated
Tue 11:18:00 AM 64.9135 -40.5554 253° West  Level Estimated
Tue 11:19:00 AM 64.8778 -40.8204 252° West  Level Estimated
Tue 11:20:00 AM 64.8416 -41.0846 252° West  Level Estimated
Tue 11:21:00 AM 64.8049 -41.3482 252° West  Level Estimated
Tue 11:22:00 AM 64.7678 -41.6110 252° West  Level Estimated
Tue 11:23:00 AM 64.7301 -41.8732 252° West  Level Estimated
Tue 11:24:00 AM 64.6921 -42.1345 251° West  Level Estimated
Tue 11:25:00 AM 64.6525 -42.4026 251° West  Level Estimated
Tue 11:26:00 AM 64.6124 -42.6700 251° West  Level Estimated
Tue 11:27:00 AM 64.5717 -42.9365 251° West  Level Estimated
Tue 11:28:00 AM 64.5307 -43.2022 250° West  Level Estimated
Tue 11:29:00 AM 64.4891 -43.4671 250° West  Level Estimated
Tue 11:30:00 AM 64.4471 -43.7312 250° West  Level Estimated
Tue 11:31:00 AM 64.4046 -43.9945 250° West  Level Estimated
Tue 11:32:00 AM 64.3616 -44.2570 249° West  Level Estimated
Tue 11:33:00 AM 64.3182 -44.5187 249° West  Level Estimated
Tue 11:34:00 AM 64.2743 -44.7795 249° West  Level Estimated
Tue 11:35:00 AM 64.2299 -45.0395 249° West  Level Estimated
Tue 11:36:00 AM 64.1851 -45.2986 248° West  Level Estimated
Tue 11:37:00 AM 64.1398 -45.5569 248° West  Level Estimated
Tue 11:38:00 AM 64.0941 -45.8144 248° West  Level Estimated
Tue 11:39:00 AM 64.0479 -46.0710 248° West  Level Estimated
Tue 11:40:00 AM 64.0012 -46.3268 248° West  Level Estimated
Tue 11:41:00 AM 63.9542 -46.5817 247° West  Level Estimated
Tue 11:42:00 AM 63.9066 -46.8358 247° West  Level Estimated
Tue 11:43:00 AM 63.8586 -47.0889 247° West  Level Estimated
Tue 11:44:00 AM 63.8102 -47.3413 247° West  Level Estimated
Tue 11:44:36 AM 64.7930 -51.4070 246° West 479 551 36,000  Level FlightAware ADS-B
Tue 11:45:00 AM 63.7613 -47.5927 246° West  Level Estimated
Tue 11:45:13 AM 64.7630 -51.5920 249° West 480 552 36,000  Level FlightAware ADS-B
Tue 11:45:48 AM 64.7350 -51.7590 249° West 481 554 36,000  Level FlightAware ADS-B
Tue 11:46:21 AM 64.7080 -51.9150 248° West 482 555 36,000  Level FlightAware ADS-B
Tue 11:46:56 AM 64.6790 -52.0850 248° West 481 554 36,000  Level FlightAware ADS-B
Tue 11:47:34 AM 64.6480 -52.2660 248° West 483 556 36,000  Level FlightAware ADS-B
Tue 11:48:10 AM 64.6170 -52.4410 248° West 483 556 36,000  Level FlightAware ADS-B
Tue 11:48:41 AM 64.5910 -52.5920 248° West 483 556 36,000  Level FlightAware ADS-B
Tue 11:49:37 AM 64.5470 -52.8380 247° West 483 556 36,000  Level FlightAware ADS-B
Tue 11:50:13 AM 64.5200 -52.9840 247° West 483 556 36,000  Level FlightAware ADS-B
Tue 11:50:49 AM 64.4930 -53.1300 247° West 483 556 36,000  Level FlightAware ADS-B
Tue 11:51:25 AM 64.4670 -53.2760 248° West 483 556 36,000  Level FlightAware ADS-B
Tue 11:52:01 AM 64.4400 -53.4220 247° West 483 556 36,000  Level FlightAware ADS-B
Tue 11:52:37 AM 64.4130 -53.5680 247° West 483 556 36,000  Level FlightAware ADS-B
Tue 11:53:14 AM 64.3860 -53.7180 247° West 483 556 36,000  Level FlightAware ADS-B
Tue 11:53:51 AM 64.3580 -53.8670 247° West 483 556 36,000  Level FlightAware ADS-B
Tue 11:54:29 AM 64.3300 -54.0210 247° West 483 556 36,000  Level FlightAware ADS-B
Tue 11:55:06 AM 64.3030 -54.1700 247° West 483 556 36,000  Level FlightAware ADS-B
Tue 11:55:42 AM 64.2760 -54.3150 247° West 483 556 36,000  Level FlightAware ADS-B
Tue 11:56:18 AM 64.2490 -54.4600 247° West 483 556 36,000  Level FlightAware ADS-B
Tue 11:56:52 AM 64.2240 -54.5970 247° West 483 556 36,000  Level FlightAware ADS-B
Tue 11:57:29 AM 64.1960 -54.7450 247° West 483 556 36,000  Level FlightAware ADS-B
Tue 11:58:05 AM 64.1700 -54.8900 248° West 483 556 36,000  Level FlightAware ADS-B
Tue 11:58:42 AM 64.1420 -55.0380 247° West 483 556 36,000  Level FlightAware ADS-B
Tue 11:59:36 AM 64.0333 -55.5833 247° West 490 564 36,000  Level Gander Center
Tue 12:00:36 PM 63.9833 -55.8500 247° West 490 564 36,000  Level Gander Center
Tue 12:01:36 PM 63.9333 -56.1333 248° West 490 564 36,000  Level Gander Center
Tue 12:02:36 PM 63.8500 -56.4333 238° Southwest 480 552 36,000  Level Gander Center
Tue 12:03:36 PM 63.8000 -56.7167 248° West 480 552 36,000  Level Gander Center
Tue 12:04:13 PM 63.7833 -56.7167 180° South 190 219 36,000  Level Montreal Center
Tue 12:05:13 PM 63.7167 -57.0000 242° Southwest 430 495 36,000 100 Level Montreal Center
Tue 12:06:13 PM 63.6333 -57.2500 233° Southwest 490 564 36,200 250 Climbing Montreal Center
Tue 12:07:13 PM 63.5667 -57.4833 237° Southwest 480 552 36,500 400 Climbing Montreal Center
Tue 12:08:13 PM 63.4833 -57.7167 231° Southwest 470 541 37,000 450 Climbing Montreal Center
Tue 12:09:13 PM 63.4000 -57.9667 233° Southwest 470 541 37,400 400 Climbing Montreal Center
Tue 12:10:13 PM 63.3333 -58.1667 233° Southwest 470 541 37,800 300 Climbing Montreal Center
Tue 12:11:13 PM 63.2500 -58.4167 234° Southwest 480 552 38,000 100 Climbing Montreal Center
Tue 12:12:13 PM 63.1833 -58.6833 241° Southwest 480 552 38,000  Level Montreal Center
Tue 12:13:13 PM 63.0833 -58.9167 227° Southwest 480 552 38,000  Level Montreal Center
Tue 12:14:13 PM 63.0000 -59.1667 234° Southwest 470 541 38,000  Level Montreal Center
Tue 12:15:13 PM 62.9167 -59.4000 232° Southwest 470 541 38,000  Level Montreal Center
Tue 12:16:13 PM 62.8500 -59.6333 238° Southwest 470 541 38,000  Level Montreal Center
Tue 12:17:13 PM 62.7667 -59.8500 230° Southwest 470 541 38,000  Level Montreal Center
Tue 12:18:13 PM 62.6667 -60.1000 229° Southwest 470 541 38,000  Level Montreal Center
Tue 12:19:13 PM 62.5833 -60.2833 225° Southwest 470 541 38,000  Level Montreal Center
Tue 12:20:13 PM 62.5167 -60.5167 238° Southwest 470 541 38,000  Level Montreal Center
Tue 12:21:13 PM 62.4333 -60.7333 230° Southwest 470 541 38,000  Level Montreal Center
Tue 12:22:13 PM 62.3500 -60.9500 230° Southwest 470 541 38,000  Level Montreal Center
Tue 12:23:13 PM 62.2667 -61.1833 233° Southwest 470 541 38,000  Level Montreal Center
Tue 12:24:13 PM 62.1833 -61.4167 233° Southwest 470 541 38,000  Level Montreal Center
Tue 12:25:13 PM 62.1000 -61.6000 226° Southwest 470 541 38,000  Level Montreal Center
Tue 12:26:13 PM 62.0167 -61.8167 231° Southwest 470 541 38,000  Level Montreal Center
Tue 12:27:13 PM 61.9167 -62.0333 226° Southwest 480 552 38,000  Level Montreal Center
Tue 12:28:05 PM 61.8500 -62.2667 239° Southwest 490 564 38,000  Level Gander Center
Tue 12:29:13 PM 61.7500 -62.4333 218° Southwest 480 552 38,000  Level Montreal Center
Tue 12:30:13 PM 61.6667 -62.6500 231° Southwest 490 564 38,000  Level Montreal Center
Tue 12:31:13 PM 61.5667 -62.8667 226° Southwest 480 552 38,000  Level Montreal Center
Tue 12:32:13 PM 61.4833 -63.0833 231° Southwest 480 552 38,000  Level Montreal Center
Tue 12:33:13 PM 61.4000 -63.3000 231° Southwest 490 564 38,000  Level Montreal Center
Tue 12:34:13 PM 61.3333 -63.5000 235° Southwest 490 564 38,000  Level Montreal Center
Tue 12:35:13 PM 61.2333 -63.7167 226° Southwest 470 541 38,000  Level Montreal Center
Tue 12:36:13 PM 61.1500 -63.9167 229° Southwest 480 552 38,000  Level Montreal Center
Tue 12:37:13 PM 61.0500 -64.1333 226° Southwest 470 541 38,000  Level Montreal Center
Tue 12:38:13 PM 60.9667 -64.3333 229° Southwest 480 552 38,000  Level Montreal Center
Tue 12:39:13 PM 60.8667 -64.5500 227° Southwest 480 552 38,000  Level Montreal Center
Tue 12:40:13 PM 60.7833 -64.7500 230° Southwest 470 541 38,000  Level Montreal Center
Tue 12:41:13 PM 60.7000 -64.9167 224° Southwest 470 541 38,000  Level Montreal Center
Tue 12:42:13 PM 60.6167 -65.1167 230° Southwest 470 541 38,000  Level Montreal Center
Tue 12:43:13 PM 60.5333 -65.3167 230° Southwest 470 541 38,000  Level Montreal Center
Tue 12:44:13 PM 60.4167 -65.5167 220° Southwest 470 541 38,000  Level Montreal Center
Tue 12:45:13 PM 60.3333 -65.7167 230° Southwest 470 541 38,000  Level Montreal Center
Tue 12:46:13 PM 60.2500 -65.9167 230° Southwest 470 541 38,000  Level Montreal Center
Tue 12:47:13 PM 60.1667 -66.0833 225° Southwest 470 541 38,000  Level Montreal Center
Tue 12:48:13 PM 60.0667 -66.2833 225° Southwest 470 541 38,000  Level Montreal Center
Tue 12:49:13 PM 59.9667 -66.4833 225° Southwest 460 529 38,000  Level Montreal Center
Tue 12:50:13 PM 59.8833 -66.6333 222° Southwest 460 529 38,000  Level Montreal Center
Tue 12:51:13 PM 59.7833 -66.8333 225° Southwest 470 541 38,000  Level Montreal Center
Tue 12:52:13 PM 59.7000 -67.0167 228° Southwest 470 541 38,000  Level Montreal Center
Tue 12:53:13 PM 59.6167 -67.2167 231° Southwest 470 541 38,000  Level Montreal Center
Tue 12:54:13 PM 59.5167 -67.4000 223° Southwest 470 541 38,000  Level Montreal Center
Tue 12:55:13 PM 59.4167 -67.5667 220° Southwest 470 541 38,000  Level Montreal Center
Tue 12:56:13 PM 59.3333 -67.7500 228° Southwest 470 541 38,000  Level Montreal Center
Tue 12:57:13 PM 59.2333 -67.9333 223° Southwest 470 541 38,000  Level Montreal Center
Tue 12:58:13 PM 59.1500 -68.1167 228° Southwest 470 541 38,000  Level Montreal Center
Tue 12:59:13 PM 59.0500 -68.2667 218° Southwest 470 541 38,000  Level Montreal Center
Tue 01:00:13 PM 58.9500 -68.4833 228° Southwest 470 541 38,000  Level Montreal Center
Tue 01:01:13 PM 58.8500 -68.6333 218° Southwest 470 541 38,000  Level Montreal Center
Tue 01:02:13 PM 58.7667 -68.8167 229° Southwest 470 541 38,000  Level Montreal Center
Tue 01:03:13 PM 58.6667 -69.0000 224° Southwest 470 541 38,000  Level Montreal Center
Tue 01:04:13 PM 58.5833 -69.1833 229° Southwest 470 541 38,000  Level Montreal Center
Tue 01:05:13 PM 58.4667 -69.3333 214° Southwest 470 541 38,000  Level Montreal Center
Tue 01:06:13 PM 58.3833 -69.5167 229° Southwest 470 541 38,000  Level Montreal Center
Tue 01:07:13 PM 58.2833 -69.6833 221° Southwest 470 541 38,000  Level Montreal Center
Tue 01:08:13 PM 58.2000 -69.8667 229° Southwest 470 541 38,000  Level Montreal Center
Tue 01:09:13 PM 58.1000 -70.0000 215° Southwest 470 541 38,000  Level Montreal Center
Tue 01:10:13 PM 57.9833 -70.2167 225° Southwest 460 529 38,000  Level Montreal Center
Tue 01:11:13 PM 57.9000 -70.3500 220° Southwest 460 529 38,000  Level Montreal Center
Tue 01:12:13 PM 57.8000 -70.5333 224° Southwest 460 529 38,000  Level Montreal Center
Tue 01:13:13 PM 57.7000 -70.7000 222° Southwest 460 529 38,000  Level Montreal Center
Tue 01:14:13 PM 57.6167 -70.8333 221° Southwest 460 529 38,000  Level Montreal Center
Tue 01:15:13 PM 57.5167 -71.0167 225° Southwest 460 529 38,000  Level Montreal Center
Tue 01:16:13 PM 57.4167 -71.1833 222° Southwest 460 529 38,000  Level Montreal Center
Tue 01:17:13 PM 57.3333 -71.3167 221° Southwest 460 529 38,000  Level Montreal Center
Tue 01:18:13 PM 57.2333 -71.4833 222° Southwest 470 541 38,000  Level Montreal Center
Tue 01:19:13 PM 57.1333 -71.6500 222° Southwest 470 541 38,000  Level Montreal Center
Tue 01:20:13 PM 57.0333 -71.8167 222° Southwest 470 541 38,000  Level Montreal Center
Tue 01:21:13 PM 56.9333 -71.9833 222° Southwest 470 541 38,000  Level Montreal Center
Tue 01:22:13 PM 56.8333 -72.1500 222° Southwest 470 541 38,000  Level Montreal Center
Tue 01:24:13 PM 56.6333 -72.4500 220° Southwest 470 541 38,000  Level Montreal Center
Tue 01:25:13 PM 56.5500 -72.6000 225° Southwest 460 529 38,000  Level Montreal Center
Tue 01:26:13 PM 56.4500 -72.7333 216° Southwest 460 529 38,000  Level Montreal Center
Tue 01:27:13 PM 56.3500 -72.9000 223° Southwest 460 529 38,000  Level Montreal Center
Tue 01:28:13 PM 56.2500 -73.0500 220° Southwest 460 529 38,000  Level Montreal Center
Tue 01:29:13 PM 56.1500 -73.1833 217° Southwest 460 529 38,000  Level Montreal Center
Tue 01:30:13 PM 56.0500 -73.3333 220° Southwest 450 518 38,000  Level Montreal Center
Tue 01:31:13 PM 55.9500 -73.5000 223° Southwest 460 529 38,000  Level Montreal Center
Tue 01:32:13 PM 55.8667 -73.6167 218° Southwest 460 529 38,000  Level Montreal Center
Tue 01:33:13 PM 55.7667 -73.7833 223° Southwest 460 529 38,000  Level Montreal Center
Tue 01:34:13 PM 55.6667 -73.9333 220° Southwest 460 529 38,000  Level Montreal Center
Tue 01:35:13 PM 55.5667 -74.0500 213° Southwest 460 529 38,000  Level Montreal Center
Tue 01:36:13 PM 55.4500 -74.2167 219° Southwest 450 518 38,000  Level Montreal Center
Tue 01:37:13 PM 55.3500 -74.3667 220° Southwest 470 541 38,000  Level Montreal Center
Tue 01:38:13 PM 55.2500 -74.5167 221° Southwest 460 529 38,000  Level Montreal Center
Tue 01:39:13 PM 55.1500 -74.6333 214° Southwest 460 529 38,000  Level Montreal Center
Tue 01:40:13 PM 55.0500 -74.7833 221° Southwest 460 529 38,000  Level Montreal Center
Tue 01:41:13 PM 54.9500 -74.9000 214° Southwest 470 541 38,000  Level Montreal Center
Tue 01:42:13 PM 54.8500 -75.0500 221° Southwest 460 529 38,000  Level Montreal Center
Tue 01:43:13 PM 54.7500 -75.2000 221° Southwest 470 541 38,000  Level Montreal Center
Tue 01:44:13 PM 54.6500 -75.3500 221° Southwest 470 541 38,000  Level Montreal Center
Tue 01:45:13 PM 54.5333 -75.5000 217° Southwest 470 541 38,000  Level Montreal Center
Tue 01:46:13 PM 54.4333 -75.6167 214° Southwest 470 541 38,000  Level Montreal Center
Tue 01:47:13 PM 54.3333 -75.7667 221° Southwest 470 541 38,000  Level Montreal Center
Tue 01:48:13 PM 54.2333 -75.9000 218° Southwest 470 541 38,000  Level Montreal Center
Tue 01:49:13 PM 54.1333 -76.0500 221° Southwest 470 541 38,000  Level Montreal Center
Tue 01:50:13 PM 54.0167 -76.2000 217° Southwest 470 541 38,000  Level Montreal Center
Tue 01:51:13 PM 53.9167 -76.3000 211° Southwest 470 541 38,000  Level Montreal Center
Tue 01:52:12 PM 53.8167 -76.4500 222° Southwest 470 541 38,000  Level Montreal Center
Tue 01:53:12 PM 53.7167 -76.5833 218° Southwest 470 541 38,000  Level Montreal Center
Tue 01:54:12 PM 53.6000 -76.7333 217° Southwest 470 541 38,000  Level Montreal Center
Tue 01:55:12 PM 53.4833 -76.8667 214° Southwest 470 541 38,000  Level Montreal Center
Tue 01:56:12 PM 53.3833 -76.9833 215° Southwest 470 541 38,000  Level Montreal Center
Tue 01:57:12 PM 53.2833 -77.1167 219° Southwest 470 541 38,000  Level Montreal Center
Tue 01:58:12 PM 53.1833 -77.2500 219° Southwest 470 541 38,000  Level Montreal Center
Tue 01:59:12 PM 53.0833 -77.4000 222° Southwest 470 541 38,000  Level Montreal Center
Tue 02:00:12 PM 52.9833 -77.5333 219° Southwest 470 541 38,000  Level Montreal Center
Tue 02:01:12 PM 52.8500 -77.6333 204° Southwest 470 541 38,000  Level Montreal Center
Tue 02:02:12 PM 52.7500 -77.7667 219° Southwest 470 541 38,000  Level Montreal Center
Tue 02:03:12 PM 52.6500 -77.9000 219° Southwest 470 541 38,000  Level Montreal Center
Tue 02:04:12 PM 52.5333 -78.0333 215° Southwest 470 541 38,000  Level Montreal Center
Tue 02:05:12 PM 52.4333 -78.1667 219° Southwest 470 541 38,000  Level Montreal Center
Tue 02:06:12 PM 52.3167 -78.3000 215° Southwest 470 541 38,000  Level Montreal Center
Tue 02:07:12 PM 52.2167 -78.4167 216° Southwest 470 541 38,000  Level Montreal Center
Tue 02:08:12 PM 52.1167 -78.5500 219° Southwest 470 541 38,000  Level Montreal Center
Tue 02:09:12 PM 52.0000 -78.6667 212° Southwest 480 552 38,000  Level Montreal Center
Tue 02:10:12 PM 51.9000 -78.8000 219° Southwest 480 552 38,000  Level Montreal Center
Tue 02:11:12 PM 51.7833 -78.9333 215° Southwest 480 552 38,000  Level Montreal Center
Tue 02:12:12 PM 51.6833 -79.0667 220° Southwest 480 552 38,000  Level Montreal Center
Tue 02:13:12 PM 51.5667 -79.1833 212° Southwest 480 552 38,000  Level Montreal Center
Tue 02:14:12 PM 51.4667 -79.2833 212° Southwest 480 552 38,000  Level Montreal Center
Tue 02:15:12 PM 51.3500 -79.4167 216° Southwest 480 552 38,000  Level Montreal Center
Tue 02:16:12 PM 51.2500 -79.5500 220° Southwest 480 552 38,000  Level Montreal Center
Tue 02:17:12 PM 51.1333 -79.6667 212° Southwest 470 541 38,000  Level Montreal Center
Tue 02:18:12 PM 51.0000 -79.7833 209° Southwest 480 552 38,000  Level Montreal Center
Tue 02:19:12 PM 50.9000 -79.9167 220° Southwest 480 552 38,000  Level Montreal Center
Tue 02:20:12 PM 50.8000 -80.0333 216° Southwest 480 552 38,000  Level Montreal Center
Tue 02:21:12 PM 50.6833 -80.1667 216° Southwest 480 552 38,000  Level Montreal Center
Tue 02:22:12 PM 50.5833 -80.2667 212° Southwest 480 552 38,000  Level Montreal Center
Tue 02:23:12 PM 50.4667 -80.4000 216° Southwest 480 552 38,000  Level Montreal Center
Tue 02:24:12 PM 50.3500 -80.5000 209° Southwest 480 552 38,000  Level Montreal Center
Tue 02:25:12 PM 50.2333 -80.6167 213° Southwest 480 552 38,000  Level Montreal Center
Tue 02:25:44 PM 50.1833 -80.6667 213° Southwest 490 564 38,000  Level Toronto Center
Tue 02:26:44 PM 50.0667 -80.7667 209° Southwest 490 564 38,000  Level Toronto Center
Tue 02:27:44 PM 49.9500 -80.9000 216° Southwest 490 564 38,000  Level Toronto Center
Tue 02:28:44 PM 49.8333 -81.0167 213° Southwest 490 564 38,000  Level Toronto Center
Tue 02:29:44 PM 49.7333 -81.1167 213° Southwest 480 552 38,000  Level Toronto Center
Tue 02:30:44 PM 49.6167 -81.2500 217° Southwest 480 552 38,000  Level Toronto Center
Tue 02:31:44 PM 49.5167 -81.3500 213° Southwest 480 552 38,000  Level Toronto Center
Tue 02:32:44 PM 49.4000 -81.4667 213° Southwest 480 552 38,000  Level Toronto Center
Tue 02:33:44 PM 49.3000 -81.5667 213° Southwest 480 552 38,000  Level Toronto Center
Tue 02:34:44 PM 49.1833 -81.7000 217° Southwest 470 541 38,000  Level Toronto Center
Tue 02:35:44 PM 49.0833 -81.7833 209° Southwest 470 541 38,000  Level Toronto Center
Tue 02:36:44 PM 48.9667 -81.9167 217° Southwest 470 541 38,000  Level Toronto Center
Tue 02:37:44 PM 48.8500 -82.0167 209° Southwest 470 541 38,000  Level Toronto Center
Tue 02:38:44 PM 48.7333 -82.1333 213° Southwest 470 541 38,000  Level Toronto Center
Tue 02:39:44 PM 48.6333 -82.2333 213° Southwest 470 541 38,000  Level Toronto Center
Tue 02:40:44 PM 48.5167 -82.3500 214° Southwest 470 541 38,000  Level Toronto Center
Tue 02:41:44 PM 48.4167 -82.4500 214° Southwest 470 541 38,000  Level Toronto Center
Tue 02:42:44 PM 48.3000 -82.5667 214° Southwest 470 541 38,000  Level Toronto Center
Tue 02:43:44 PM 48.2000 -82.6500 209° Southwest 470 541 38,000  Level Toronto Center
Tue 02:44:44 PM 48.0667 -82.7500 207° Southwest 470 541 38,000  Level Toronto Center
Tue 02:50:24 PM 47.3940 -83.1760 207° Southwest 474 545 38,000  Level FlightAware ADS-B
Tue 02:50:54 PM 47.3310 -83.2140 202° Southwest 474 545 38,000  Level FlightAware ADS-B
Tue 02:51:29 PM 47.2600 -83.2560 202° Southwest 473 544 38,000  Level FlightAware ADS-B
Tue 02:52:07 PM 47.1870 -83.2990 202° Southwest 473 544 38,000  Level FlightAware ADS-B
Tue 02:52:42 PM 47.1100 -83.3430 201° Southwest 474 545 38,000  Level FlightAware ADS-B
Tue 02:53:18 PM 47.0370 -83.3860 202° Southwest 475 547 38,000  Level FlightAware ADS-B
Tue 02:53:50 PM 46.9720 -83.4240 202° Southwest 475 547 38,000  Level FlightAware ADS-B
Tue 02:54:27 PM 46.8950 -83.4690 202° Southwest 476 548 38,000  Level FlightAware ADS-B
Tue 02:55:03 PM 46.8230 -83.5110 202° Southwest 476 548 38,000  Level FlightAware ADS-B
Tue 02:55:35 PM 46.7570 -83.5490 202° Southwest 476 548 38,000  Level FlightAware ADS-B
Tue 02:56:13 PM 46.6790 -83.5940 202° Southwest 477 549 38,000  Level FlightAware ADS-B
Tue 02:56:49 PM 46.6050 -83.6360 201° Southwest 478 550 38,000  Level FlightAware ADS-B
Tue 02:57:21 PM 46.5390 -83.6740 202° Southwest 478 550 38,000  Level FlightAware ADS-B
Tue 02:57:57 PM 46.4650 -83.7160 201° Southwest 478 550 38,000  Level FlightAware ADS-B
Tue 02:58:31 PM 46.3960 -83.7560 202° Southwest 480 552 38,000  Level FlightAware ADS-B
Tue 02:59:03 PM 46.3280 -83.7940 201° Southwest 480 552 38,000  Level FlightAware ADS-B
Tue 02:59:43 PM 46.2470 -83.8400 201° Southwest 481 554 38,000  Level FlightAware ADS-B
Tue 03:00:18 PM 46.1730 -83.8810 201° Southwest 481 554 38,000  Level FlightAware ADS-B
Tue 03:00:52 PM 46.1040 -83.9210 202° Southwest 481 554 38,000  Level FlightAware ADS-B
Tue 03:01:27 PM 46.0310 -83.9620 201° Southwest 482 555 38,000  Level FlightAware ADS-B
Tue 03:02:03 PM 45.9570 -84.0030 201° Southwest 483 556 38,000  Level FlightAware ADS-B
Tue 03:02:39 PM 45.8810 -84.0450 201° Southwest 484 557 38,000  Level FlightAware ADS-B
Tue 03:03:13 PM 45.8110 -84.0840 201° Southwest 484 557 38,000  Level FlightAware ADS-B
Tue 03:03:49 PM 45.7360 -84.1260 201° Southwest 485 558 38,000  Level FlightAware ADS-B
Tue 03:04:24 PM 45.6630 -84.1660 201° Southwest 484 557 38,000  Level FlightAware ADS-B
Tue 03:04:56 PM 45.5950 -84.2040 201° Southwest 484 557 38,000  Level FlightAware ADS-B
Tue 03:05:32 PM 45.5190 -84.2460 201° Southwest 484 557 38,000  Level FlightAware ADS-B
Tue 03:06:02 PM 45.4590 -84.2790 201° Southwest 484 557 38,000  Level FlightAware ADS-B
Tue 03:06:42 PM 45.3740 -84.3250 201° Southwest 484 557 38,000  Level FlightAware ADS-B
Tue 03:07:18 PM 45.2990 -84.3660 201° Southwest 484 557 38,000  Level FlightAware ADS-B
Tue 03:07:54 PM 45.2250 -84.4060 201° Southwest 484 557 38,000  Level FlightAware ADS-B
Tue 03:08:30 PM 45.1550 -84.4440 201° Southwest 484 557 38,000  Level FlightAware ADS-B
Tue 03:09:01 PM 45.0840 -84.4830 201° Southwest 483 556 38,000  Level FlightAware ADS-B
Tue 03:09:34 PM 45.0170 -84.5190 201° Southwest 483 556 38,000  Level FlightAware ADS-B
Tue 03:10:12 PM 44.9380 -84.5620 201° Southwest 482 555 38,000  Level FlightAware ADS-B
Tue 03:10:41 PM 44.8800 -84.5930 201° Southwest 482 555 38,000  Level FlightAware ADS-B
Tue 03:11:27 PM 44.7830 -84.6440 200° South 480 552 38,000  Level FlightAware ADS-B
Tue 03:11:59 PM 44.7140 -84.6810 201° Southwest 480 552 38,000  Level FlightAware ADS-B
Tue 03:12:34 PM 44.6470 -84.7170 201° Southwest 479 551 38,000  Level FlightAware ADS-B
Tue 03:13:12 PM 44.5620 -84.7620 201° Southwest 480 552 38,000  Level FlightAware ADS-B
Tue 03:13:47 PM 44.4950 -84.7980 201° Southwest 477 549 38,000 -179 Level FlightAware ADS-B
Tue 03:14:19 PM 44.4280 -84.8330 200° South 473 544 37,800 -627 Descending FlightAware ADS-B
Tue 03:14:54 PM 44.3520 -84.8730 201° Southwest 477 549 37,300 -1,000 Descending FlightAware ADS-B
Tue 03:15:31 PM 44.2760 -84.9130 201° Southwest 477 549 36,600 -1,114 Descending FlightAware ADS-B
Tue 03:16:04 PM 44.2090 -84.9480 201° Southwest 477 549 36,000 -1,164 Descending FlightAware ADS-B
Tue 03:16:38 PM 44.1390 -84.9850 201° Southwest 480 552 35,300 -1,315 Descending FlightAware ADS-B
Tue 03:17:17 PM 44.0560 -85.0280 200° South 486 559 34,400 -1,297 Descending FlightAware ADS-B
Tue 03:17:52 PM 43.9830 -85.0660 201° Southwest 487 560 33,700 -1,147 Descending FlightAware ADS-B
Tue 03:18:25 PM 43.9140 -85.1020 201° Southwest 489 563 33,100 -1,130 Descending FlightAware ADS-B
Tue 03:19:01 PM 43.8370 -85.1420 201° Southwest 488 562 32,400 -904 Descending FlightAware ADS-B
Tue 03:19:38 PM 43.7580 -85.1820 200° South 488 562 32,000 -338 Descending FlightAware ADS-B
Tue 03:20:12 PM 43.6840 -85.2170 199° South 492 566 32,000  Level FlightAware ADS-B
Tue 03:20:48 PM 43.6070 -85.2430 194° South 494 568 32,000  Level FlightAware ADS-B
Tue 03:21:20 PM 43.5330 -85.2660 193° South 495 570 32,000 -353 Level FlightAware ADS-B
Tue 03:21:56 PM 43.4530 -85.2910 193° South 494 568 31,600 -917 Descending FlightAware ADS-B
Tue 03:22:32 PM 43.3750 -85.3150 193° South 497 572 30,900 -1,000 Descending FlightAware ADS-B
Tue 03:23:08 PM 43.2920 -85.3410 193° South 494 568 30,400 -870 Descending FlightAware ADS-B
Tue 03:23:41 PM 43.2200 -85.3640 193° South 488 562 29,900 -1,015 Descending FlightAware ADS-B
Tue 03:24:13 PM 43.1500 -85.3850 192° South 483 556 29,300 -1,099 Descending FlightAware ADS-B
Tue 03:24:52 PM 43.0650 -85.4110 193° South 476 548 28,600 -1,000 Descending FlightAware ADS-B
Tue 03:25:25 PM 42.9960 -85.4330 193° South 471 542 28,100 -750 Descending FlightAware ADS-B
Tue 03:25:40 PM 42.9640 -85.4490 200° South 466 536 28,000 -667 Descending FlightAware ADS-B
Tue 03:26:01 PM 42.9270 -85.4830 214° Southwest 452 520 27,700 -1,231 Descending FlightAware ADS-B
Tue 03:26:19 PM 42.9030 -85.5190 228° Southwest 443 510 27,200 -1,886 Descending FlightAware ADS-B
Tue 03:26:36 PM 42.8850 -85.5630 241° Southwest 437 503 26,600 -1,800 Descending FlightAware ADS-B
Tue 03:27:09 PM 42.8590 -85.6420 246° West 429 494 25,700 -1,612 Descending FlightAware ADS-B
Tue 03:27:43 PM 42.8310 -85.7280 246° West 424 488 24,800 -1,437 Descending FlightAware ADS-B
Tue 03:28:20 PM 42.8020 -85.8150 246° West 417 480 24,000 -1,216 Descending FlightAware ADS-B
Tue 03:28:57 PM 42.7720 -85.9020 245° Southwest 412 474 23,300 -1,217 Descending FlightAware ADS-B
Tue 03:29:29 PM 42.7460 -85.9800 246° West 408 470 22,600 -1,343 Descending FlightAware ADS-B
Tue 03:30:04 PM 42.7180 -86.0600 245° Southwest 403 464 21,800 -1,333 Descending FlightAware ADS-B
Tue 03:30:41 PM 42.6900 -86.1410 245° Southwest 401 461 21,000 -1,286 Descending FlightAware ADS-B
Tue 03:31:14 PM 42.6640 -86.2170 245° Southwest 399 459 20,300 -957 Descending FlightAware ADS-B
Tue 03:31:50 PM 42.6410 -86.3020 250° West 396 456 19,900 -1,000 Descending FlightAware ADS-B
Tue 03:32:26 PM 42.6240 -86.3870 255° West 394 453 19,100 -1,562 Descending FlightAware ADS-B
Tue 03:33:03 PM 42.6070 -86.4770 256° West 393 452 18,000 -1,800 Descending FlightAware ADS-B
Tue 03:33:36 PM 42.5930 -86.5530 256° West 387 445 17,000 -1,739 Descending FlightAware ADS-B
Tue 03:34:12 PM 42.5780 -86.6360 256° West 372 428 16,000 -1,853 Descending FlightAware ADS-B
Tue 03:34:44 PM 42.5630 -86.7090 254° West 366 421 14,900 -2,029 Descending FlightAware ADS-B
Tue 03:35:20 PM 42.5440 -86.7860 252° West 362 417 13,700 -2,167 Descending FlightAware ADS-B
Tue 03:35:56 PM 42.5230 -86.8650 250° West 370 426 12,300 -1,750 Descending FlightAware ADS-B
Tue 03:36:32 PM 42.5020 -86.9420 250° West 357 411 11,600 -1,417 Descending FlightAware ADS-B
Tue 03:37:08 PM 42.4810 -87.0160 249° West 350 403 10,600 -1,600 Descending FlightAware ADS-B
Tue 03:37:32 PM 42.4690 -87.0600 250° West 347 399 10,000 -1,174 Descending FlightAware ADS-B
Tue 03:37:54 PM 42.4560 -87.1080 250° West 343 395 9,700 -391 Descending FlightAware ADS-B
Tue 03:38:18 PM 42.4430 -87.1560 250° West 332 382 9,700  Level FlightAware ADS-B
Tue 03:38:38 PM 42.4330 -87.1940 250° West 309 356 9,700 -286 Level FlightAware ADS-B
Tue 03:39:00 PM 42.4220 -87.2320 249° West 292 336 9,500 -714 Descending FlightAware ADS-B
Tue 03:39:20 PM 42.4130 -87.2670 251° West 285 328 9,200 -1,050 Descending FlightAware ADS-B
Tue 03:39:40 PM 42.4040 -87.2990 249° West 279 321 8,800 -750 Descending FlightAware ADS-B
Tue 03:40:00 PM 42.3940 -87.3320 248° West 282 325 8,700 -714 Descending FlightAware ADS-B
Tue 03:40:22 PM 42.3840 -87.3660 248° West 279 321 8,300 -1,143 Descending FlightAware ADS-B
Tue 03:40:42 PM 42.3750 -87.3990 250° West 278 320 7,900 -1,429 Descending FlightAware ADS-B
Tue 03:41:04 PM 42.3640 -87.4350 248° West 277 319 7,300 -1,500 Descending FlightAware ADS-B
Tue 03:41:26 PM 42.3530 -87.4710 248° West 276 318 6,800 -857 Descending FlightAware ADS-B
Tue 03:41:46 PM 42.3410 -87.5010 242° Southwest 274 315 6,700 -158 Descending FlightAware ADS-B
Tue 03:42:04 PM 42.3270 -87.5240 231° Southwest 274 315 6,700  Level FlightAware ADS-B
Tue 03:42:30 PM 42.3040 -87.5560 226° Southwest 273 314 6,700  Level FlightAware ADS-B
Tue 03:42:50 PM 42.2870 -87.5750 220° Southwest 272 313 6,700  Level FlightAware ADS-B
Tue 03:43:10 PM 42.2650 -87.6000 220° Southwest 271 312 6,700  Level FlightAware ADS-B
Tue 03:43:30 PM 42.2460 -87.6210 219° Southwest 271 312 6,700 -439 Level FlightAware ADS-B
Tue 03:43:51 PM 42.2260 -87.6430 219° Southwest 271 312 6,400 -1,286 Descending FlightAware ADS-B
Tue 03:44:12 PM 42.2050 -87.6660 219° Southwest 274 315 5,800 -1,733 Descending FlightAware ADS-B
Tue 03:44:36 PM 42.1810 -87.6930 220° Southwest 264 304 5,100 -1,667 Descending FlightAware ADS-B
Tue 03:44:48 PM 42.1710 -87.7040 219° Southwest 259 298 4,800 -1,313 Descending FlightAware ADS-B
Tue 03:45:08 PM 42.1530 -87.7240 219° Southwest 240 276 4,400 -1,227 Descending FlightAware ADS-B
Tue 03:45:32 PM 42.1330 -87.7460 219° Southwest 219 252 3,900 -1,227 Descending FlightAware ADS-B
Tue 03:45:52 PM 42.1190 -87.7620 220° Southwest 218 251 3,500 -1,200 Descending FlightAware ADS-B
Tue 03:46:12 PM 42.1030 -87.7800 220° Southwest 210 242 3,100 -1,200 Descending FlightAware ADS-B
Tue 03:46:32 PM 42.0890 -87.7950 218° Southwest 191 220 2,700 -977 Descending FlightAware ADS-B
Tue 03:46:55 PM 42.0750 -87.8110 220° Southwest 188 216 2,400 -955 Descending FlightAware ADS-B
Tue 03:47:16 PM 42.0600 -87.8270 218° Southwest 173 199 2,000 -1,029 Descending FlightAware ADS-B
Tue 03:47:30 PM 42.0520 -87.8360 220° Southwest 158 182 1,800 -900 Descending FlightAware ADS-B
Tue 03:47:56 PM 42.0380 -87.8520 220° Southwest 142 163 1,400 -857 Descending FlightAware ADS-B
Tue 03:48:19 PM 42.0260 -87.8650 219° Southwest 145 167 1,100 -667 Descending FlightAware ADS-B
Tue 03:48:32 PM 42.0200 -87.8720 221° Southwest 143 165 1,000 -774 Descending FlightAware ADS-B
Tue 03:48:50 PM 42.0100 -87.8820 217° Southwest 140 161 700 -837 Descending FlightAware ADS-B
Tue 03:49:15 PM 41.9990 -87.8950 221° Southwest 136 157 400 -720 Descending FlightAware ADS-B
Tue 03:49:35 PM 41.9900 -87.9050 220° Southwest 74 85 -1,200 Descending FlightAware ADS-B

Login

Don't have an account? Register now (free) for customized features, flight alerts, and more!